createdAt,value
2022-10-13T00:00:24.602Z,49.15
2022-10-13T00:01:24.665Z,47.37
2022-10-13T00:02:24.592Z,46.08
2022-10-13T00:03:24.607Z,46.25
2022-10-13T00:04:24.576Z,46.41
2022-10-13T00:05:24.555Z,50.43
2022-10-13T00:06:25.136Z,47.05
2022-10-13T00:07:24.553Z,45.44
2022-10-13T00:08:24.562Z,46.08
2022-10-13T00:09:24.533Z,49.79
2022-10-13T00:10:24.518Z,49.15
2022-10-13T00:11:24.512Z,49.31
2022-10-13T00:12:24.502Z,52.21
2022-10-13T00:13:24.517Z,48.98
2022-10-13T00:14:24.500Z,43.99
2022-10-13T00:15:24.479Z,47.53
2022-10-13T00:16:24.467Z,46.73
2022-10-13T00:17:24.462Z,43.34
2022-10-13T00:18:24.486Z,44.79
2022-10-13T00:19:24.443Z,54.46
2022-10-13T00:20:24.432Z,51.88
2022-10-13T00:21:24.441Z,44.96
2022-10-13T00:22:24.416Z,47.37
2022-10-13T00:23:24.451Z,40.77
2022-10-13T00:24:24.400Z,38.99
2022-10-13T00:25:24.391Z,41.41
2022-10-13T00:26:24.382Z,44.63
2022-10-13T00:27:24.373Z,37.22
2022-10-13T00:28:24.403Z,43.67
2022-10-13T00:29:24.435Z,44.79
2022-10-13T00:30:24.809Z,51.72
2022-10-13T00:31:24.593Z,51.56
2022-10-13T00:32:24.350Z,45.92
2022-10-13T00:33:24.330Z,44.47
2022-10-13T00:34:24.347Z,46.08
2022-10-13T00:35:24.313Z,44.96
2022-10-13T00:36:24.306Z,40.61
2022-10-13T00:37:24.293Z,38.51
2022-10-13T00:38:24.324Z,45.92
2022-10-13T00:39:24.283Z,43.99
2022-10-13T00:40:24.258Z,39.48
2022-10-13T00:41:25.263Z,41.41
2022-10-13T00:42:24.256Z,40.77
2022-10-13T00:43:24.272Z,53.82
2022-10-13T00:44:24.248Z,47.53
2022-10-13T00:45:24.226Z,40.12
2022-10-13T00:46:24.219Z,43.67
2022-10-13T00:47:24.221Z,36.90
2022-10-13T00:48:25.230Z,34.97
2022-10-13T00:49:24.192Z,37.54
2022-10-13T00:50:24.325Z,46.41
2022-10-13T00:51:24.174Z,39.64
2022-10-13T00:52:24.215Z,40.28
2022-10-13T00:53:24.207Z,39.80
2022-10-13T00:54:24.330Z,42.22
2022-10-13T00:55:24.188Z,41.89
2022-10-13T00:56:24.635Z,55.11
2022-10-13T00:57:24.125Z,37.22
2022-10-13T00:58:24.155Z,42.54
2022-10-13T00:59:24.108Z,40.44
2022-10-13T01:00:24.106Z,44.96
2022-10-13T01:01:24.278Z,40.93
2022-10-13T01:02:24.088Z,36.90
2022-10-13T01:03:24.104Z,37.06
2022-10-13T01:04:24.067Z,41.09
2022-10-13T01:05:24.056Z,39.16
2022-10-13T01:06:24.109Z,39.48
2022-10-13T01:07:24.043Z,42.86
2022-10-13T01:08:24.060Z,44.63
2022-10-13T01:09:24.373Z,44.47
2022-10-13T01:10:24.019Z,47.21
2022-10-13T01:11:24.359Z,41.73
2022-10-13T01:12:24.373Z,41.41
2022-10-13T01:13:24.029Z,41.89
2022-10-13T01:14:23.983Z,38.51
2022-10-13T01:15:24.057Z,44.96
2022-10-13T01:16:23.967Z,40.77
2022-10-13T01:17:23.967Z,40.93
2022-10-13T01:18:23.979Z,39.16
2022-10-13T01:19:23.944Z,36.42
2022-10-13T01:20:23.930Z,45.76
2022-10-13T01:21:23.922Z,39.32
2022-10-13T01:22:23.919Z,46.89
2022-10-13T01:23:23.969Z,40.77
2022-10-13T01:24:23.905Z,37.06
2022-10-13T01:25:23.886Z,37.87
2022-10-13T01:26:24.043Z,35.29
2022-10-13T01:27:23.873Z,38.51
2022-10-13T01:28:23.926Z,39.96
2022-10-13T01:29:23.860Z,53.01
2022-10-13T01:30:23.855Z,45.76
2022-10-13T01:31:23.844Z,41.89
2022-10-13T01:32:23.833Z,45.76
2022-10-13T01:33:23.819Z,43.51
2022-10-13T01:34:23.849Z,43.51
2022-10-13T01:35:23.893Z,40.28
2022-10-13T01:36:23.806Z,44.96
2022-10-13T01:37:23.792Z,45.92
2022-10-13T01:38:23.776Z,44.79
2022-10-13T01:39:23.800Z,44.15
2022-10-13T01:40:23.765Z,42.22
2022-10-13T01:41:23.762Z,39.48
2022-10-13T01:42:23.744Z,40.12
2022-10-13T01:43:23.739Z,41.25
2022-10-13T01:44:23.754Z,46.41
2022-10-13T01:45:23.778Z,39.96
2022-10-13T01:46:24.763Z,36.42
2022-10-13T01:47:23.703Z,39.16
2022-10-13T01:48:23.699Z,35.61
2022-10-13T01:49:23.722Z,36.42
2022-10-13T01:50:23.688Z,49.47
2022-10-13T01:51:23.745Z,45.28
2022-10-13T01:52:23.664Z,41.73
2022-10-13T01:53:23.657Z,37.06
2022-10-13T01:54:23.835Z,45.44
2022-10-13T01:55:23.634Z,43.02
2022-10-13T01:56:23.632Z,38.03
2022-10-13T01:57:23.618Z,36.09
2022-10-13T01:58:24.613Z,41.25
2022-10-13T01:59:23.639Z,42.70
2022-10-13T02:00:23.618Z,51.72
2022-10-13T02:01:23.842Z,39.48
2022-10-13T02:02:23.729Z,35.93
2022-10-13T02:03:23.585Z,40.44
2022-10-13T02:04:23.592Z,46.41
2022-10-13T02:05:23.561Z,49.47
2022-10-13T02:06:23.548Z,54.14
2022-10-13T02:07:23.548Z,38.51
2022-10-13T02:08:24.531Z,38.19
2022-10-13T02:09:23.552Z,36.74
2022-10-13T02:10:23.568Z,37.22
2022-10-13T02:11:23.660Z,39.32
2022-10-13T02:12:23.500Z,37.54
2022-10-13T02:13:23.489Z,42.38
2022-10-13T02:14:23.511Z,42.38
2022-10-13T02:15:23.468Z,47.37
2022-10-13T02:16:23.461Z,48.50
2022-10-13T02:17:23.452Z,47.53
2022-10-13T02:18:23.445Z,49.79
2022-10-13T02:19:23.481Z,40.77
2022-10-13T02:20:23.422Z,40.12
2022-10-13T02:21:23.419Z,41.41
2022-10-13T02:22:23.411Z,42.22
2022-10-13T02:23:23.419Z,40.93
2022-10-13T02:24:23.441Z,45.92
2022-10-13T02:25:23.388Z,46.41
2022-10-13T02:26:23.411Z,42.70
2022-10-13T02:27:23.370Z,47.37
2022-10-13T02:28:23.409Z,48.02
2022-10-13T02:29:23.338Z,43.99
2022-10-13T02:30:23.361Z,47.86
2022-10-13T02:31:23.621Z,42.70
2022-10-13T02:32:23.323Z,40.44
2022-10-13T02:33:23.318Z,42.54
2022-10-13T02:34:23.347Z,50.27
2022-10-13T02:35:23.298Z,43.99
2022-10-13T02:36:23.380Z,56.88
2022-10-13T02:37:23.279Z,42.70
2022-10-13T02:38:23.267Z,39.64
2022-10-13T02:39:23.277Z,42.38
2022-10-13T02:40:23.303Z,39.64
2022-10-13T02:41:23.246Z,39.32
2022-10-13T02:42:23.576Z,50.92
2022-10-13T02:43:23.226Z,54.95
2022-10-13T02:44:23.266Z,45.28
2022-10-13T02:45:23.218Z,46.73
2022-10-13T02:46:23.204Z,41.41
2022-10-13T02:47:23.198Z,40.12
2022-10-13T02:48:23.183Z,39.64
2022-10-13T02:49:24.360Z,56.56
2022-10-13T02:50:23.206Z,51.88
2022-10-13T02:51:23.183Z,46.73
2022-10-13T02:52:23.218Z,44.47
2022-10-13T02:53:23.162Z,43.34
2022-10-13T02:54:23.168Z,43.51
2022-10-13T02:55:23.251Z,45.76
2022-10-13T02:56:23.131Z,49.63
2022-10-13T02:57:23.117Z,43.34
2022-10-13T02:58:23.112Z,44.15
2022-10-13T02:59:23.156Z,46.25
2022-10-13T03:00:23.098Z,46.41
2022-10-13T03:01:23.083Z,40.61
2022-10-13T03:02:23.487Z,56.56
2022-10-13T03:03:23.070Z,43.99
2022-10-13T03:04:23.095Z,49.31
2022-10-13T03:05:23.087Z,46.57
2022-10-13T03:06:23.044Z,44.47
2022-10-13T03:07:23.028Z,60.59
2022-10-13T03:08:23.029Z,54.79
2022-10-13T03:09:23.048Z,54.95
2022-10-13T03:10:23.010Z,49.15
2022-10-13T03:11:23.004Z,57.36
2022-10-13T03:12:23.199Z,53.98
2022-10-13T03:13:22.990Z,59.46
2022-10-13T03:14:23.007Z,50.27
2022-10-13T03:15:22.973Z,46.25
2022-10-13T03:16:22.963Z,51.56
2022-10-13T03:17:22.947Z,56.72
2022-10-13T03:18:22.943Z,53.01
2022-10-13T03:19:22.972Z,60.26
2022-10-13T03:20:22.932Z,54.79
2022-10-13T03:21:22.920Z,53.17
2022-10-13T03:22:23.320Z,58.33
2022-10-13T03:23:22.917Z,50.11
2022-10-13T03:24:22.928Z,50.92
2022-10-13T03:25:22.888Z,57.36
2022-10-13T03:26:22.878Z,60.26
2022-10-13T03:27:22.976Z,51.72
2022-10-13T03:28:22.910Z,50.92
2022-10-13T03:29:22.889Z,49.15
2022-10-13T03:30:22.915Z,59.78
2022-10-13T03:31:22.842Z,56.24
2022-10-13T03:32:23.149Z,56.40
2022-10-13T03:33:22.815Z,59.94
2022-10-13T03:34:22.811Z,63.65
2022-10-13T03:35:22.830Z,61.71
2022-10-13T03:36:22.794Z,58.81
2022-10-13T03:37:22.920Z,51.40
2022-10-13T03:38:22.783Z,48.66
2022-10-13T03:39:22.772Z,50.27
2022-10-13T03:40:22.791Z,64.61
2022-10-13T03:41:22.756Z,61.87
2022-10-13T03:42:22.903Z,55.91
2022-10-13T03:43:22.751Z,55.43
2022-10-13T03:44:22.727Z,56.72
2022-10-13T03:45:22.744Z,53.82
2022-10-13T03:46:22.698Z,58.65
2022-10-13T03:47:23.697Z,56.24
2022-10-13T03:48:22.692Z,54.30
2022-10-13T03:49:22.697Z,48.34
2022-10-13T03:50:22.707Z,45.60
2022-10-13T03:51:22.658Z,57.36
2022-10-13T03:52:22.848Z,48.98
2022-10-13T03:53:22.660Z,51.72
2022-10-13T03:54:22.640Z,51.88
2022-10-13T03:55:22.666Z,58.33
2022-10-13T03:56:22.743Z,52.69
2022-10-13T03:57:22.624Z,50.92
2022-10-13T03:58:22.607Z,55.75
2022-10-13T03:59:22.755Z,49.79
2022-10-13T04:00:22.698Z,64.29
2022-10-13T04:01:22.630Z,51.88
2022-10-13T04:02:22.678Z,59.14
2022-10-13T04:03:22.562Z,65.58
2022-10-13T04:04:22.554Z,52.69
2022-10-13T04:05:22.573Z,57.52
2022-10-13T04:06:22.542Z,50.27
2022-10-13T04:07:22.541Z,60.75
2022-10-13T04:08:22.524Z,47.21
2022-10-13T04:09:22.520Z,58.33
2022-10-13T04:10:22.541Z,64.45
2022-10-13T04:11:22.499Z,64.78
2022-10-13T04:12:22.829Z,48.02
2022-10-13T04:13:22.482Z,58.49
2022-10-13T04:14:22.472Z,56.40
2022-10-13T04:15:22.490Z,63.16
2022-10-13T04:16:22.460Z,57.52
2022-10-13T04:17:22.450Z,58.17
2022-10-13T04:18:22.437Z,57.69
2022-10-13T04:19:22.442Z,60.26
2022-10-13T04:20:22.453Z,55.27
2022-10-13T04:21:22.416Z,56.72
2022-10-13T04:22:22.791Z,56.56
2022-10-13T04:23:22.395Z,60.26
2022-10-13T04:24:22.389Z,47.21
2022-10-13T04:25:22.405Z,59.46
2022-10-13T04:26:22.375Z,63.33
2022-10-13T04:27:22.360Z,50.92
2022-10-13T04:28:22.390Z,52.69
2022-10-13T04:29:22.347Z,52.37
2022-10-13T04:30:22.368Z,63.49
2022-10-13T04:31:22.335Z,59.62
2022-10-13T04:32:22.517Z,58.49
2022-10-13T04:33:22.321Z,54.62
2022-10-13T04:34:22.357Z,61.23
2022-10-13T04:35:22.327Z,53.33
2022-10-13T04:36:22.301Z,51.24
2022-10-13T04:37:22.339Z,65.58
2022-10-13T04:38:22.274Z,60.10
2022-10-13T04:39:22.267Z,63.00
2022-10-13T04:40:22.286Z,64.78
2022-10-13T04:41:22.434Z,60.26
2022-10-13T04:42:22.726Z,62.68
2022-10-13T04:43:22.231Z,65.74
2022-10-13T04:44:22.220Z,65.10
2022-10-13T04:45:22.240Z,55.43
2022-10-13T04:46:22.207Z,54.46
2022-10-13T04:47:22.190Z,63.00
2022-10-13T04:48:22.179Z,60.75
2022-10-13T04:49:22.276Z,55.43
2022-10-13T04:50:22.199Z,61.71
2022-10-13T04:51:22.167Z,57.36
2022-10-13T04:52:22.483Z,68.32
2022-10-13T04:53:22.149Z,65.58
2022-10-13T04:54:22.147Z,53.33
2022-10-13T04:55:22.158Z,63.65
2022-10-13T04:56:22.119Z,63.16
2022-10-13T04:57:22.117Z,64.13
2022-10-13T04:58:22.108Z,57.36
2022-10-13T04:59:22.097Z,55.75
2022-10-13T05:00:22.236Z,67.84
2022-10-13T05:01:22.583Z,63.65
2022-10-13T05:02:23.081Z,56.72
2022-10-13T05:03:22.066Z,60.26
2022-10-13T05:04:22.066Z,64.78
2022-10-13T05:05:22.076Z,65.10
2022-10-13T05:06:22.039Z,64.94
2022-10-13T05:07:22.035Z,62.52
2022-10-13T05:08:22.046Z,65.42
2022-10-13T05:09:22.047Z,65.26
2022-10-13T05:10:22.034Z,58.49
2022-10-13T05:11:22.006Z,60.59
2022-10-13T05:12:22.245Z,64.78
2022-10-13T05:13:21.981Z,61.71
2022-10-13T05:14:21.966Z,63.49
2022-10-13T05:15:22.010Z,64.45
2022-10-13T05:16:22.021Z,62.68
2022-10-13T05:17:21.959Z,63.65
2022-10-13T05:18:21.941Z,63.65
2022-10-13T05:19:21.926Z,66.87
2022-10-13T05:20:22.957Z,64.94
2022-10-13T05:21:21.917Z,64.29
2022-10-13T05:22:22.210Z,66.71
2022-10-13T05:23:21.899Z,67.03
2022-10-13T05:24:21.891Z,60.26
2022-10-13T05:25:21.918Z,61.55
2022-10-13T05:26:21.879Z,54.95
2022-10-13T05:27:21.863Z,67.51
2022-10-13T05:28:21.919Z,68.32
2022-10-13T05:29:21.849Z,65.90
2022-10-13T05:30:21.874Z,62.84
2022-10-13T05:31:21.828Z,65.58
2022-10-13T05:32:22.213Z,59.62
2022-10-13T05:33:21.820Z,64.78
2022-10-13T05:34:21.803Z,67.35
2022-10-13T05:35:21.797Z,61.07
2022-10-13T05:36:21.819Z,61.87
2022-10-13T05:37:21.782Z,67.03
2022-10-13T05:38:25.932Z,64.29
2022-10-13T05:39:22.765Z,55.75
2022-10-13T05:40:21.746Z,64.78
2022-10-13T05:41:22.785Z,57.69
2022-10-13T05:42:22.131Z,61.39
2022-10-13T05:43:21.734Z,64.94
2022-10-13T05:44:21.736Z,67.68
2022-10-13T05:45:21.747Z,65.42
2022-10-13T05:46:21.741Z,58.81
2022-10-13T05:47:21.697Z,59.94
2022-10-13T05:48:21.697Z,63.16
2022-10-13T05:49:21.683Z,56.56
2022-10-13T05:50:21.676Z,64.61
2022-10-13T05:51:21.712Z,56.72
2022-10-13T05:52:22.073Z,53.82
2022-10-13T05:53:21.690Z,55.75
2022-10-13T05:54:21.650Z,53.50
2022-10-13T05:55:21.643Z,50.43
2022-10-13T05:56:21.672Z,52.85
2022-10-13T05:57:21.620Z,56.56
2022-10-13T05:58:21.615Z,64.13
2022-10-13T05:59:26.772Z,64.45
2022-10-13T06:00:23.594Z,62.52
2022-10-13T06:01:21.614Z,62.20
2022-10-13T06:02:22.007Z,64.13
2022-10-13T06:03:21.567Z,67.84
2022-10-13T06:04:21.563Z,51.24
2022-10-13T06:05:21.552Z,65.74
2022-10-13T06:06:21.572Z,57.52
2022-10-13T06:07:21.545Z,57.52
2022-10-13T06:08:21.535Z,67.51
2022-10-13T06:09:21.520Z,64.78
2022-10-13T06:10:21.522Z,58.17
2022-10-13T06:11:21.528Z,59.14
2022-10-13T06:12:21.810Z,63.97
2022-10-13T06:13:21.501Z,65.10
2022-10-13T06:14:21.478Z,60.42
2022-10-13T06:15:25.696Z,52.53
2022-10-13T06:16:23.485Z,55.11
2022-10-13T06:17:21.452Z,66.71
2022-10-13T06:18:21.451Z,59.94
2022-10-13T06:19:21.443Z,58.17
2022-10-13T06:20:21.434Z,58.97
2022-10-13T06:21:21.452Z,62.68
2022-10-13T06:22:21.906Z,56.72
2022-10-13T06:23:21.409Z,61.39
2022-10-13T06:24:21.396Z,61.07
2022-10-13T06:25:21.384Z,58.17
2022-10-13T06:26:21.505Z,54.30
2022-10-13T06:27:21.373Z,59.46
2022-10-13T06:28:21.409Z,55.91
2022-10-13T06:29:21.353Z,65.74
2022-10-13T06:30:21.357Z,59.94
2022-10-13T06:31:21.361Z,60.91
2022-10-13T06:32:21.726Z,58.33
2022-10-13T06:33:21.321Z,60.91
2022-10-13T06:34:21.313Z,59.62
2022-10-13T06:35:21.304Z,64.13
2022-10-13T06:36:21.329Z,63.33
2022-10-13T06:37:26.958Z,60.91
2022-10-13T06:38:23.277Z,61.87
2022-10-13T06:39:21.279Z,64.61
2022-10-13T06:40:21.255Z,57.69
2022-10-13T06:41:21.348Z,57.04
2022-10-13T06:42:21.575Z,51.08
2022-10-13T06:43:21.246Z,55.11
2022-10-13T06:44:21.232Z,65.58
2022-10-13T06:45:21.221Z,63.97
2022-10-13T06:46:21.256Z,59.46
2022-10-13T06:47:21.214Z,51.40
2022-10-13T06:48:21.201Z,57.04
2022-10-13T06:49:21.199Z,50.27
2022-10-13T06:50:21.180Z,55.59
2022-10-13T06:51:21.169Z,61.55
2022-10-13T06:52:21.566Z,51.72
2022-10-13T06:53:21.155Z,65.58
2022-10-13T06:54:21.147Z,56.56
2022-10-13T06:55:21.142Z,54.46
2022-10-13T06:56:21.178Z,61.39
2022-10-13T06:57:21.153Z,62.68
2022-10-13T06:58:21.135Z,61.07
2022-10-13T06:59:21.126Z,60.42
2022-10-13T07:00:21.152Z,59.94
2022-10-13T07:01:21.089Z,50.11
2022-10-13T07:02:21.450Z,61.23
2022-10-13T07:03:21.079Z,65.26
2022-10-13T07:04:21.153Z,66.55
2022-10-13T07:05:21.064Z,53.50
2022-10-13T07:06:21.032Z,52.53
2022-10-13T07:07:22.067Z,60.26
2022-10-13T07:08:21.043Z,60.26
2022-10-13T07:09:21.015Z,48.02
2022-10-13T07:10:21.008Z,52.85
2022-10-13T07:11:20.996Z,53.66
2022-10-13T07:12:21.352Z,61.23
2022-10-13T07:14:20.967Z,55.43
2022-10-13T07:15:20.960Z,60.42
2022-10-13T07:16:20.953Z,57.04
2022-10-13T07:17:21.193Z,61.87
2022-10-13T07:18:20.938Z,63.16
2022-10-13T07:19:20.937Z,58.81
2022-10-13T07:20:20.926Z,54.14
2022-10-13T07:21:20.919Z,61.07
2022-10-13T07:22:20.933Z,55.91
2022-10-13T07:23:20.904Z,61.55
2022-10-13T07:24:20.902Z,56.72
2022-10-13T07:25:20.900Z,56.40
2022-10-13T07:26:20.874Z,57.69
2022-10-13T07:27:21.107Z,58.33
2022-10-13T07:28:20.869Z,58.17
2022-10-13T07:29:20.858Z,63.81
2022-10-13T07:30:20.870Z,54.30
2022-10-13T07:31:20.831Z,60.91
2022-10-13T07:32:20.844Z,55.59
2022-10-13T07:33:20.821Z,52.53
2022-10-13T07:34:20.805Z,54.62
2022-10-13T07:35:20.793Z,53.66
2022-10-13T07:36:20.794Z,53.66
2022-10-13T07:37:21.130Z,52.37
2022-10-13T07:38:20.765Z,55.91
2022-10-13T07:39:21.756Z,69.13
2022-10-13T07:40:20.806Z,64.45
2022-10-13T07:41:20.744Z,58.49
2022-10-13T07:42:20.771Z,59.14
2022-10-13T07:43:20.740Z,65.42
2022-10-13T07:44:20.733Z,50.60
2022-10-13T07:45:20.713Z,61.71
2022-10-13T07:46:20.760Z,58.17
2022-10-13T07:47:21.085Z,59.62
2022-10-13T07:49:20.675Z,52.05
2022-10-13T07:50:20.745Z,56.72
2022-10-13T07:51:20.665Z,66.55
2022-10-13T07:52:21.014Z,54.62
2022-10-13T07:53:20.643Z,51.24
2022-10-13T07:54:23.801Z,58.65
2022-10-13T07:55:22.628Z,66.06
2022-10-13T07:56:20.621Z,61.55
2022-10-13T07:57:20.643Z,58.17
2022-10-13T07:58:20.640Z,52.53
2022-10-13T07:59:20.631Z,62.52
2022-10-13T08:00:20.608Z,69.13
2022-10-13T08:01:20.613Z,67.51
2022-10-13T08:02:21.071Z,56.56
2022-10-13T08:03:20.567Z,56.40
2022-10-13T08:04:20.558Z,54.46
2022-10-13T08:05:20.550Z,61.23
2022-10-13T08:06:20.545Z,50.76
2022-10-13T08:07:21.023Z,60.26
2022-10-13T08:08:20.538Z,66.23
2022-10-13T08:09:20.520Z,65.90
2022-10-13T08:10:20.530Z,60.26
2022-10-13T08:11:20.508Z,58.49
2022-10-13T08:12:20.889Z,60.26
2022-10-13T08:13:20.487Z,63.33
2022-10-13T08:14:20.485Z,59.46
2022-10-13T08:15:20.466Z,63.00
2022-10-13T08:16:20.455Z,63.33
2022-10-13T08:17:20.770Z,58.33
2022-10-13T08:18:20.448Z,57.52
2022-10-13T08:19:20.443Z,55.59
2022-10-13T08:20:20.424Z,59.78
2022-10-13T08:22:27.278Z,51.88
2022-10-13T08:23:21.411Z,59.30
2022-10-13T08:24:20.396Z,54.46
2022-10-13T08:25:20.387Z,54.95
2022-10-13T08:26:20.383Z,62.20
2022-10-13T08:27:20.769Z,62.68
2022-10-13T08:28:20.408Z,53.17
2022-10-13T08:29:23.000Z,53.66
2022-10-13T08:30:21.553Z,51.88
2022-10-13T08:31:20.489Z,62.68
2022-10-13T08:32:20.701Z,63.16
2022-10-13T08:33:20.320Z,54.79
2022-10-13T08:34:20.307Z,63.00
2022-10-13T08:35:20.296Z,55.11
2022-10-13T08:36:20.293Z,59.78
2022-10-13T08:37:20.308Z,62.68
2022-10-13T08:38:20.277Z,59.46
2022-10-13T08:39:20.264Z,52.37
2022-10-13T08:40:20.263Z,60.26
2022-10-13T08:41:21.252Z,52.21
2022-10-13T08:42:20.612Z,50.43
2022-10-13T08:43:20.239Z,54.62
2022-10-13T08:45:40.332Z,66.71
2022-10-13T08:46:22.230Z,58.97
2022-10-13T08:47:20.235Z,54.30
2022-10-13T08:48:20.191Z,67.84
2022-10-13T08:49:20.185Z,64.45
2022-10-13T08:50:20.167Z,60.26
2022-10-13T08:51:20.173Z,50.27
2022-10-13T08:52:20.532Z,63.65
2022-10-13T08:53:20.151Z,59.46
2022-10-13T08:54:20.143Z,61.71
2022-10-13T08:55:20.137Z,60.59
2022-10-13T08:56:20.122Z,54.14
2022-10-13T08:57:20.324Z,59.62
2022-10-13T08:58:20.107Z,54.62
2022-10-13T08:59:20.104Z,65.42
2022-10-13T09:00:20.093Z,55.43
2022-10-13T09:01:20.135Z,57.69
2022-10-13T09:02:20.100Z,60.59
2022-10-13T09:03:20.062Z,53.66
2022-10-13T09:04:20.052Z,54.95
2022-10-13T09:05:20.055Z,62.20
2022-10-13T09:06:20.048Z,61.39
2022-10-13T09:07:20.300Z,51.40
2022-10-13T09:08:20.053Z,56.40
2022-10-13T09:09:20.013Z,50.11
2022-10-13T09:10:20.032Z,66.39
2022-10-13T09:11:19.999Z,62.04
2022-10-13T09:12:20.154Z,56.72
2022-10-13T09:13:20.015Z,61.71
2022-10-13T09:14:19.973Z,59.94
2022-10-13T09:15:19.964Z,56.40
2022-10-13T09:16:19.952Z,58.65
2022-10-13T09:17:20.010Z,56.56
2022-10-13T09:18:19.972Z,58.81
2022-10-13T09:19:19.961Z,49.79
2022-10-13T09:20:19.921Z,60.10
2022-10-13T09:21:19.922Z,54.14
2022-10-13T09:22:20.182Z,55.75
2022-10-13T09:23:19.931Z,54.95
2022-10-13T09:24:19.885Z,54.30
2022-10-13T09:25:19.886Z,57.52
2022-10-13T09:26:19.878Z,52.53
2022-10-13T09:27:19.865Z,66.55
2022-10-13T09:28:19.919Z,67.68
2022-10-13T09:29:19.846Z,61.07
2022-10-13T09:30:19.848Z,58.81
2022-10-13T09:31:19.829Z,58.01
2022-10-13T09:32:20.125Z,56.56
2022-10-13T09:33:19.859Z,58.17
2022-10-13T09:34:19.805Z,54.30
2022-10-13T09:35:19.814Z,66.39
2022-10-13T09:36:19.789Z,63.16
2022-10-13T09:37:19.782Z,57.52
2022-10-13T09:38:19.815Z,52.53
2022-10-13T09:39:19.752Z,61.23
2022-10-13T09:40:20.758Z,57.85
2022-10-13T09:41:19.779Z,65.10
2022-10-13T09:42:20.026Z,56.56
2022-10-13T09:43:19.759Z,53.50
2022-10-13T09:44:22.080Z,61.71
2022-10-13T09:45:19.715Z,49.95
2022-10-13T09:46:19.716Z,66.55
2022-10-13T09:47:19.700Z,56.40
2022-10-13T09:48:19.721Z,57.04
2022-10-13T09:49:19.695Z,62.20
2022-10-13T09:50:19.829Z,64.45
2022-10-13T09:51:19.678Z,59.94
2022-10-13T09:52:19.879Z,63.49
2022-10-13T09:53:19.687Z,61.87
2022-10-13T09:54:19.653Z,55.59
2022-10-13T09:55:19.650Z,52.69
2022-10-13T09:56:19.634Z,56.72
2022-10-13T09:57:19.650Z,50.76
2022-10-13T09:58:19.655Z,56.24
2022-10-13T09:59:19.605Z,62.52
2022-10-13T10:00:19.592Z,51.88
2022-10-13T10:01:19.601Z,52.53
2022-10-13T10:02:21.352Z,58.49
2022-10-13T10:03:19.597Z,63.65
2022-10-13T10:04:19.577Z,65.74
2022-10-13T10:05:19.557Z,60.26
2022-10-13T10:06:20.766Z,59.62
2022-10-13T10:07:19.755Z,66.55
2022-10-13T10:08:22.630Z,55.27
2022-10-13T10:09:20.555Z,57.69
2022-10-13T10:10:19.518Z,58.33
2022-10-13T10:11:19.512Z,56.72
2022-10-13T10:12:21.877Z,56.72
2022-10-13T10:13:19.485Z,57.85
2022-10-13T10:14:19.522Z,63.00
2022-10-13T10:15:19.474Z,61.23
2022-10-13T10:16:19.660Z,55.91
2022-10-13T10:17:19.663Z,61.23
2022-10-13T10:18:19.471Z,59.46
2022-10-13T10:19:19.430Z,57.36
2022-10-13T10:20:19.430Z,60.75
2022-10-13T10:21:19.421Z,55.27
2022-10-13T10:22:19.431Z,66.06
2022-10-13T10:23:19.422Z,59.30
2022-10-13T10:24:19.393Z,59.78
2022-10-13T10:25:19.389Z,55.27
2022-10-13T10:26:23.141Z,50.27
2022-10-13T10:28:20.466Z,64.78
2022-10-13T10:29:19.351Z,64.78
2022-10-13T10:30:19.340Z,55.91
2022-10-13T10:31:19.333Z,62.52
2022-10-13T10:32:19.652Z,63.33
2022-10-13T10:33:19.349Z,50.76
2022-10-13T10:34:19.310Z,61.55
2022-10-13T10:35:19.304Z,67.35
2022-10-13T10:36:19.297Z,64.29
2022-10-13T10:37:22.797Z,62.68
2022-10-13T10:38:20.310Z,55.91
2022-10-13T10:39:19.261Z,48.02
2022-10-13T10:40:19.258Z,67.35
2022-10-13T10:41:19.276Z,64.94
2022-10-13T10:42:19.518Z,55.75
2022-10-13T10:43:19.279Z,53.01
2022-10-13T10:44:19.222Z,55.75
2022-10-13T10:45:19.223Z,55.11
2022-10-13T10:46:19.209Z,67.51
2022-10-13T10:47:22.521Z,67.84
2022-10-13T10:48:19.191Z,53.01
2022-10-13T10:49:19.204Z,62.84
2022-10-13T10:50:19.168Z,53.01
2022-10-13T10:51:19.172Z,62.84
2022-10-13T10:52:19.144Z,58.97
2022-10-13T10:53:19.153Z,57.85
2022-10-13T10:54:19.211Z,65.10
2022-10-13T10:55:19.126Z,53.98
2022-10-13T10:56:19.117Z,53.01
2022-10-13T10:57:19.311Z,57.20
2022-10-13T10:58:19.132Z,59.30
2022-10-13T10:59:19.093Z,65.26
2022-10-13T11:00:19.122Z,57.85
2022-10-13T11:01:19.103Z,58.65
2022-10-13T11:02:19.365Z,58.97
2022-10-13T11:03:19.105Z,52.21
2022-10-13T11:04:19.047Z,52.37
2022-10-13T11:05:19.043Z,52.05
2022-10-13T11:06:19.039Z,58.65
2022-10-13T11:07:19.038Z,64.61
2022-10-13T11:08:19.081Z,60.59
2022-10-13T11:09:19.007Z,57.69
2022-10-13T11:10:18.996Z,61.23
2022-10-13T11:11:23.354Z,52.37
2022-10-13T11:12:20.434Z,62.68
2022-10-13T11:13:19.057Z,64.94
2022-10-13T11:14:18.966Z,57.52
2022-10-13T11:15:18.955Z,60.10
2022-10-13T11:16:18.946Z,56.72
2022-10-13T11:17:18.936Z,62.68
2022-10-13T11:18:21.942Z,66.39
2022-10-13T11:19:19.920Z,55.11
2022-10-13T11:20:18.905Z,67.03
2022-10-13T11:21:18.899Z,61.71
2022-10-13T11:22:19.245Z,64.13
2022-10-13T11:23:18.930Z,58.65
2022-10-13T11:24:18.889Z,61.07
2022-10-13T11:25:18.868Z,62.68
2022-10-13T11:26:18.857Z,62.68
2022-10-13T11:27:19.854Z,64.94
2022-10-13T11:28:18.925Z,58.17
2022-10-13T11:29:18.832Z,66.55
2022-10-13T11:30:18.884Z,62.20
2022-10-13T11:31:18.826Z,53.01
2022-10-13T11:32:19.185Z,65.90
2022-10-13T11:33:18.834Z,66.71
2022-10-13T11:34:18.799Z,58.81
2022-10-13T11:35:18.783Z,56.56
2022-10-13T11:36:18.779Z,63.16
2022-10-13T11:37:18.770Z,65.42
2022-10-13T11:38:18.979Z,58.49
2022-10-13T11:39:18.805Z,59.78
2022-10-13T11:40:18.744Z,62.20
2022-10-13T11:41:18.746Z,67.35
2022-10-13T11:42:19.105Z,65.74
2022-10-13T11:43:18.768Z,57.20
2022-10-13T11:44:18.750Z,59.78
2022-10-13T11:45:18.702Z,63.00
2022-10-13T11:46:18.700Z,64.13
2022-10-13T11:47:18.890Z,61.23
2022-10-13T11:48:18.707Z,59.94
2022-10-13T11:49:18.673Z,65.74
2022-10-13T11:50:18.663Z,55.27
2022-10-13T11:51:18.647Z,57.20
2022-10-13T11:52:19.112Z,62.68
2022-10-13T11:53:18.639Z,63.49
2022-10-13T11:54:18.656Z,65.10
2022-10-13T11:55:18.621Z,63.00
2022-10-13T11:56:18.606Z,63.81
2022-10-13T11:57:18.602Z,63.33
2022-10-13T11:58:18.598Z,47.37
2022-10-13T11:59:18.611Z,47.53
2022-10-13T12:00:18.583Z,60.91
2022-10-13T12:01:18.566Z,58.97
2022-10-13T12:02:19.418Z,57.20
2022-10-13T12:03:19.588Z,52.85
2022-10-13T12:04:18.569Z,58.01
2022-10-13T12:05:18.532Z,60.59
2022-10-13T12:06:18.525Z,64.29
2022-10-13T12:07:18.518Z,59.46
2022-10-13T12:08:18.508Z,57.69
2022-10-13T12:09:18.534Z,58.81
2022-10-13T12:10:18.490Z,63.65
2022-10-13T12:11:18.485Z,60.75
2022-10-13T12:12:18.958Z,53.98
2022-10-13T12:13:18.483Z,64.45
2022-10-13T12:14:18.491Z,62.68
2022-10-13T12:15:18.464Z,61.23
2022-10-13T12:16:18.459Z,64.94
2022-10-13T12:17:23.194Z,57.20
2022-10-13T12:18:20.425Z,58.97
2022-10-13T12:19:19.303Z,60.42
2022-10-13T12:20:18.409Z,62.04
2022-10-13T12:21:18.403Z,67.35
2022-10-13T12:22:18.408Z,61.07
2022-10-13T12:23:18.396Z,64.13
2022-10-13T12:24:18.407Z,62.36
2022-10-13T12:25:18.377Z,65.90
2022-10-13T12:26:18.358Z,65.26
2022-10-13T12:27:18.672Z,68.00
2022-10-13T12:28:18.381Z,63.16
2022-10-13T12:29:18.373Z,59.46
2022-10-13T12:30:18.332Z,63.16
2022-10-13T12:31:18.331Z,60.59
2022-10-13T12:32:18.317Z,63.65
2022-10-13T12:33:19.311Z,65.26
2022-10-13T12:34:18.333Z,63.81
2022-10-13T12:35:18.292Z,61.07
2022-10-13T12:36:18.281Z,60.26
2022-10-13T12:37:18.576Z,62.84
2022-10-13T12:38:18.261Z,56.72
2022-10-13T12:39:18.285Z,66.71
2022-10-13T12:40:18.245Z,63.16
2022-10-13T12:41:19.287Z,56.24
2022-10-13T12:42:18.232Z,55.59
2022-10-13T12:43:18.229Z,52.53
2022-10-13T12:44:18.246Z,65.58
2022-10-13T12:45:18.213Z,68.16
2022-10-13T12:46:18.200Z,56.72
2022-10-13T12:47:18.320Z,65.58
2022-10-13T12:48:18.183Z,65.42
2022-10-13T12:49:18.215Z,58.49
2022-10-13T12:50:18.191Z,62.84
2022-10-13T12:51:18.155Z,54.14
2022-10-13T12:52:18.403Z,66.23
2022-10-13T12:53:18.138Z,66.87
2022-10-13T12:54:18.157Z,65.26
2022-10-13T12:55:18.134Z,55.59
2022-10-13T12:56:18.113Z,60.10
2022-10-13T12:57:18.102Z,60.42